createdAt,value
2017-09-02T00:00:29.808Z,22.38
2017-09-02T00:01:01.383Z,22.38
2017-09-02T00:01:32.992Z,22.37
2017-09-02T00:02:04.608Z,22.37
2017-09-02T00:02:36.309Z,22.37
2017-09-02T00:03:07.922Z,22.37
2017-09-02T00:03:39.488Z,22.37
2017-09-02T00:04:11.233Z,22.35
2017-09-02T00:04:42.845Z,22.36
2017-09-02T00:05:14.417Z,22.36
2017-09-02T00:05:46.003Z,22.35
2017-09-02T00:06:17.802Z,22.37
2017-09-02T00:06:49.376Z,22.38
2017-09-02T00:07:21.086Z,22.37
2017-09-02T00:07:52.685Z,22.37
2017-09-02T00:08:24.310Z,22.37
2017-09-02T00:08:55.896Z,22.35
2017-09-02T00:09:27.461Z,22.38
2017-09-02T00:09:59.295Z,22.39
2017-09-02T00:10:30.875Z,22.40
2017-09-02T00:11:02.578Z,22.40
2017-09-02T00:11:34.156Z,22.41
2017-09-02T00:12:05.768Z,22.43
2017-09-02T00:12:37.329Z,22.47
2017-09-02T00:13:08.907Z,22.52
2017-09-02T00:13:40.638Z,22.52
2017-09-02T00:14:12.430Z,22.50
2017-09-02T00:14:43.993Z,22.48
2017-09-02T00:15:15.615Z,22.47
2017-09-02T00:15:47.210Z,22.47
2017-09-02T00:16:18.793Z,22.45
2017-09-02T00:16:50.355Z,22.44
2017-09-02T00:17:21.938Z,22.43
2017-09-02T00:17:53.528Z,22.43
2017-09-02T00:18:25.124Z,22.42
2017-09-02T00:18:56.695Z,22.41
2017-09-02T00:19:28.252Z,22.42
2017-09-02T00:19:59.830Z,22.42
2017-09-02T00:20:31.521Z,22.42
2017-09-02T00:21:03.092Z,22.42
2017-09-02T00:21:34.660Z,22.40
2017-09-02T00:22:06.241Z,22.42
2017-09-02T00:22:37.821Z,22.40
2017-09-02T00:23:09.452Z,22.40
2017-09-02T00:23:41.036Z,22.41
2017-09-02T00:24:12.649Z,22.40
2017-09-02T00:24:44.230Z,22.40
2017-09-02T00:25:15.809Z,22.40
2017-09-02T00:25:47.724Z,22.38
2017-09-02T00:26:19.420Z,22.38
2017-09-02T00:26:51.225Z,22.39
2017-09-02T00:27:22.808Z,22.39
2017-09-02T00:27:54.413Z,22.37
2017-09-02T00:28:25.995Z,22.38
2017-09-02T00:28:57.790Z,22.38
2017-09-02T00:29:29.367Z,22.38
2017-09-02T00:30:00.956Z,22.37
2017-09-02T00:30:32.538Z,22.37
2017-09-02T00:31:04.167Z,22.37
2017-09-02T00:31:35.751Z,22.38
2017-09-02T00:32:07.327Z,22.38
2017-09-02T00:32:38.948Z,22.38
2017-09-02T00:33:10.534Z,22.38
2017-09-02T00:33:42.117Z,22.37
2017-09-02T00:34:13.901Z,22.37
2017-09-02T00:34:45.477Z,22.38
2017-09-02T00:35:17.097Z,22.38
2017-09-02T00:35:48.670Z,22.37
2017-09-02T00:36:20.294Z,22.37
2017-09-02T00:36:51.894Z,22.36
2017-09-02T00:37:23.466Z,22.37
2017-09-02T00:37:55.127Z,22.36
2017-09-02T00:38:26.726Z,22.37
2017-09-02T00:38:58.373Z,22.36
2017-09-02T00:39:29.969Z,22.36
2017-09-02T00:40:01.655Z,22.38
2017-09-02T00:40:34.220Z,22.39
2017-09-02T00:41:05.820Z,22.38
2017-09-02T00:41:37.427Z,22.39
2017-09-02T00:42:09.008Z,22.40
2017-09-02T00:42:40.576Z,22.41
2017-09-02T00:43:12.194Z,22.41
2017-09-02T00:43:43.800Z,22.40
2017-09-02T00:44:15.404Z,22.41
2017-09-02T00:44:46.992Z,22.40
2017-09-02T00:45:18.733Z,22.39
2017-09-02T00:45:50.311Z,22.39
2017-09-02T00:46:21.898Z,22.40
2017-09-02T00:46:53.540Z,22.40
2017-09-02T00:47:25.256Z,22.39
2017-09-02T00:47:56.845Z,22.38
2017-09-02T00:48:28.542Z,22.38
2017-09-02T00:49:00.121Z,22.38
2017-09-02T00:49:31.697Z,22.37
2017-09-02T00:50:03.292Z,22.37
2017-09-02T00:50:34.863Z,22.37
2017-09-02T00:51:06.464Z,22.37
2017-09-02T00:51:38.069Z,22.37
2017-09-02T00:52:09.728Z,22.37
2017-09-02T00:52:41.323Z,22.38
2017-09-02T00:53:12.905Z,22.38
2017-09-02T00:53:44.478Z,22.38
2017-09-02T00:54:16.294Z,22.38
2017-09-02T00:54:47.918Z,22.38
2017-09-02T00:55:19.498Z,22.37
2017-09-02T00:55:51.071Z,22.37
2017-09-02T00:56:22.637Z,22.37
2017-09-02T00:56:54.207Z,22.37
2017-09-02T00:57:25.793Z,22.37
2017-09-02T00:57:57.384Z,22.36
2017-09-02T00:58:28.958Z,22.36
2017-09-02T00:59:00.527Z,22.37
2017-09-02T00:59:32.116Z,22.36
2017-09-02T01:00:03.695Z,22.38
2017-09-02T01:00:35.275Z,22.37
2017-09-02T01:01:06.879Z,22.38
2017-09-02T01:01:38.463Z,22.37
2017-09-02T01:02:10.040Z,22.37
2017-09-02T01:02:41.653Z,22.37
2017-09-02T01:03:13.236Z,22.36
2017-09-02T01:03:44.928Z,22.36
2017-09-02T01:04:16.513Z,22.36
2017-09-02T01:04:48.213Z,22.36
2017-09-02T01:05:19.811Z,22.36
2017-09-02T01:05:52.422Z,22.36
2017-09-02T01:06:23.982Z,22.35
2017-09-02T01:06:55.571Z,22.36
2017-09-02T01:07:27.147Z,22.35
2017-09-02T01:07:58.753Z,22.35
2017-09-02T01:08:30.352Z,22.34
2017-09-02T01:09:02.266Z,22.35
2017-09-02T01:09:33.830Z,22.35
2017-09-02T01:10:05.396Z,22.34
2017-09-02T01:10:37.170Z,22.35
2017-09-02T01:11:08.748Z,22.34
2017-09-02T01:11:40.346Z,22.35
2017-09-02T01:12:11.915Z,22.35
2017-09-02T01:12:43.536Z,22.34
2017-09-02T01:13:15.595Z,22.34
2017-09-02T01:13:47.218Z,22.33
2017-09-02T01:14:18.816Z,22.33
2017-09-02T01:14:50.423Z,22.33
2017-09-02T01:15:22.008Z,22.34
2017-09-02T01:15:53.609Z,22.34
2017-09-02T01:16:25.183Z,22.34
2017-09-02T01:16:56.895Z,22.33
2017-09-02T01:17:28.495Z,22.34
2017-09-02T01:18:00.103Z,22.33
2017-09-02T01:18:31.721Z,22.33
2017-09-02T01:19:03.302Z,22.33
2017-09-02T01:19:34.899Z,22.33
2017-09-02T01:20:06.483Z,22.32
2017-09-02T01:20:38.080Z,22.32
2017-09-02T01:21:09.728Z,22.32
2017-09-02T01:21:41.301Z,22.32
2017-09-02T01:22:12.893Z,22.32
2017-09-02T01:22:44.501Z,22.31
2017-09-02T01:23:16.207Z,22.32
2017-09-02T01:23:47.831Z,22.31
2017-09-02T01:24:19.482Z,22.32
2017-09-02T01:24:51.080Z,22.32
2017-09-02T01:25:22.671Z,22.32
2017-09-02T01:25:54.266Z,22.31
2017-09-02T01:26:25.840Z,22.32
2017-09-02T01:26:57.410Z,22.32
2017-09-02T01:27:28.980Z,22.32
2017-09-02T01:28:00.560Z,22.32
2017-09-02T01:28:32.138Z,22.31
2017-09-02T01:29:03.767Z,22.30
2017-09-02T01:29:35.354Z,22.31
2017-09-02T01:30:06.931Z,22.30
2017-09-02T01:30:39.462Z,22.29
2017-09-02T01:31:11.081Z,22.29
2017-09-02T01:31:42.632Z,22.29
2017-09-02T01:32:14.231Z,22.29
2017-09-02T01:32:45.857Z,22.30
2017-09-02T01:33:17.429Z,22.30
2017-09-02T01:33:48.998Z,22.30
2017-09-02T01:34:20.603Z,22.30
2017-09-02T01:34:52.192Z,22.30
2017-09-02T01:35:23.787Z,22.30
2017-09-02T01:35:55.347Z,22.29
2017-09-02T01:36:26.918Z,22.30
2017-09-02T01:36:58.501Z,22.30
2017-09-02T01:37:30.076Z,22.31
2017-09-02T01:38:01.652Z,22.31
2017-09-02T01:38:33.241Z,22.30
2017-09-02T01:39:04.830Z,22.30
2017-09-02T01:39:36.574Z,22.29
2017-09-02T01:40:08.173Z,22.29
2017-09-02T01:40:39.738Z,22.29
2017-09-02T01:41:11.343Z,22.28
2017-09-02T01:41:43.154Z,22.27
2017-09-02T01:42:14.724Z,22.28
2017-09-02T01:42:46.287Z,22.28
2017-09-02T01:43:18.054Z,22.28
2017-09-02T01:43:49.658Z,22.27
2017-09-02T01:44:21.226Z,22.27
2017-09-02T01:44:52.850Z,22.27
2017-09-02T01:45:24.447Z,22.27
2017-09-02T01:45:56.050Z,22.27
2017-09-02T01:46:27.614Z,22.27
2017-09-02T01:46:59.211Z,22.27
2017-09-02T01:47:30.780Z,22.26
2017-09-02T01:48:02.367Z,22.26
2017-09-02T01:48:33.981Z,22.27
2017-09-02T01:49:05.712Z,22.27
2017-09-02T01:49:37.291Z,22.27
2017-09-02T01:50:09.373Z,22.27
2017-09-02T01:50:40.955Z,22.28
2017-09-02T01:51:12.536Z,22.27
2017-09-02T01:51:44.344Z,22.27
2017-09-02T01:52:15.979Z,22.28
2017-09-02T01:52:47.550Z,22.28
2017-09-02T01:53:19.265Z,22.28
2017-09-02T01:53:50.846Z,22.28
2017-09-02T01:54:22.569Z,22.28
2017-09-02T01:54:54.147Z,22.29
2017-09-02T01:55:26.035Z,22.27
2017-09-02T01:55:57.610Z,22.28
2017-09-02T01:56:29.178Z,22.28
2017-09-02T01:57:00.884Z,22.28
2017-09-02T01:57:32.481Z,22.27
2017-09-02T01:58:04.352Z,22.27
2017-09-02T01:58:35.964Z,22.27
2017-09-02T01:59:07.522Z,22.28
2017-09-02T01:59:39.113Z,22.26
2017-09-02T02:00:10.916Z,22.27
2017-09-02T02:00:42.561Z,22.27
2017-09-02T02:01:14.133Z,22.27
2017-09-02T02:01:45.842Z,22.27
2017-09-02T02:02:17.421Z,22.27
2017-09-02T02:02:48.986Z,22.26
2017-09-02T02:03:20.564Z,22.26
2017-09-02T02:03:52.139Z,22.26
2017-09-02T02:04:23.700Z,22.26
2017-09-02T02:04:55.385Z,22.26
2017-09-02T02:05:26.978Z,22.26
2017-09-02T02:05:58.588Z,22.25
2017-09-02T02:06:30.185Z,22.25
2017-09-02T02:07:01.758Z,22.25
2017-09-02T02:07:33.603Z,22.26
2017-09-02T02:08:05.244Z,22.25
2017-09-02T02:08:36.824Z,22.25
2017-09-02T02:09:08.523Z,22.24
2017-09-02T02:09:40.104Z,22.25
2017-09-02T02:10:11.807Z,22.25
2017-09-02T02:10:43.388Z,22.25
2017-09-02T02:11:14.950Z,22.25
2017-09-02T02:11:46.521Z,22.25
2017-09-02T02:12:18.089Z,22.24
2017-09-02T02:12:49.653Z,22.25
2017-09-02T02:13:21.350Z,22.25
2017-09-02T02:13:52.939Z,22.25
2017-09-02T02:14:24.633Z,22.25
2017-09-02T02:14:56.212Z,22.25
2017-09-02T02:15:27.884Z,22.25
2017-09-02T02:15:59.502Z,22.25
2017-09-02T02:16:31.108Z,22.26
2017-09-02T02:17:02.708Z,22.26
2017-09-02T02:17:34.296Z,22.26
2017-09-02T02:18:06.126Z,22.25
2017-09-02T02:18:37.708Z,22.25
2017-09-02T02:19:09.415Z,22.25
2017-09-02T02:19:40.990Z,22.26
2017-09-02T02:20:12.689Z,22.26
2017-09-02T02:20:44.270Z,22.25
2017-09-02T02:21:15.863Z,22.25
2017-09-02T02:21:47.469Z,22.25
2017-09-02T02:22:19.063Z,22.25
2017-09-02T02:22:50.683Z,22.24
2017-09-02T02:23:22.259Z,22.23
2017-09-02T02:23:53.830Z,22.24
2017-09-02T02:24:25.529Z,22.24
2017-09-02T02:24:57.111Z,22.24
2017-09-02T02:25:28.811Z,22.24
2017-09-02T02:26:00.392Z,22.24
2017-09-02T02:26:31.984Z,22.23
2017-09-02T02:27:04.713Z,22.24
2017-09-02T02:27:36.319Z,22.24
2017-09-02T02:28:07.939Z,22.25
2017-09-02T02:28:39.748Z,22.24
2017-09-02T02:29:11.327Z,22.24
2017-09-02T02:29:42.913Z,22.25
2017-09-02T02:30:14.506Z,22.24
2017-09-02T02:30:46.120Z,22.24
2017-09-02T02:31:17.721Z,22.24
2017-09-02T02:31:49.430Z,22.24
2017-09-02T02:32:21.070Z,22.24
2017-09-02T02:32:52.677Z,22.24
2017-09-02T02:33:24.255Z,22.23
2017-09-02T02:33:55.838Z,22.23
2017-09-02T02:34:27.644Z,22.24
2017-09-02T02:34:59.243Z,22.23
2017-09-02T02:35:30.925Z,22.23
2017-09-02T02:36:02.523Z,22.22
2017-09-02T02:36:34.138Z,22.22
2017-09-02T02:37:05.865Z,22.22
2017-09-02T02:37:37.455Z,22.21
2017-09-02T02:38:09.037Z,22.19
2017-09-02T02:38:40.602Z,22.21
2017-09-02T02:39:12.202Z,22.21
2017-09-02T02:39:43.777Z,22.21
2017-09-02T02:40:15.376Z,22.21
2017-09-02T02:40:47.201Z,22.20
2017-09-02T02:41:18.800Z,22.21
2017-09-02T02:41:50.370Z,22.20
2017-09-02T02:42:21.986Z,22.20
2017-09-02T02:42:53.603Z,22.20
2017-09-02T02:43:25.187Z,22.20
2017-09-02T02:43:56.770Z,22.20
2017-09-02T02:44:28.366Z,22.20
2017-09-02T02:45:00.176Z,22.19
2017-09-02T02:45:31.774Z,22.20
2017-09-02T02:46:03.365Z,22.20
2017-09-02T02:46:34.932Z,22.20
2017-09-02T02:47:06.739Z,22.20
2017-09-02T02:47:38.314Z,22.20
2017-09-02T02:48:10.082Z,22.19
2017-09-02T02:48:41.673Z,22.19
2017-09-02T02:49:13.246Z,22.18
2017-09-02T02:49:44.806Z,22.18
2017-09-02T02:50:16.591Z,22.19
2017-09-02T02:50:48.179Z,22.19
2017-09-02T02:51:19.873Z,22.18
2017-09-02T02:51:51.449Z,22.19
2017-09-02T02:52:23.024Z,22.20
2017-09-02T02:52:54.621Z,22.19
2017-09-02T02:53:26.441Z,22.19
2017-09-02T02:53:58.042Z,22.19
2017-09-02T02:54:29.743Z,22.19
2017-09-02T02:55:01.314Z,22.20
2017-09-02T02:55:32.889Z,22.21
2017-09-02T02:56:04.455Z,22.22
2017-09-02T02:56:36.034Z,22.21
2017-09-02T02:57:07.625Z,22.21
2017-09-02T02:57:39.203Z,22.20
2017-09-02T02:58:10.910Z,22.20
2017-09-02T02:58:42.546Z,22.19
2017-09-02T02:59:14.114Z,22.20
2017-09-02T02:59:45.694Z,22.21
2017-09-02T03:00:17.273Z,22.21
2017-09-02T03:00:48.834Z,22.21
2017-09-02T03:01:20.400Z,22.19
2017-09-02T03:01:52.102Z,22.20
2017-09-02T03:02:23.681Z,22.20
2017-09-02T03:02:55.250Z,22.20
2017-09-02T03:03:26.822Z,22.21
2017-09-02T03:03:58.665Z,22.21
2017-09-02T03:04:30.256Z,22.21
2017-09-02T03:05:01.948Z,22.21
2017-09-02T03:05:33.525Z,22.19
2017-09-02T03:06:05.092Z,22.19
2017-09-02T03:06:36.874Z,22.19
2017-09-02T03:07:08.685Z,22.19
2017-09-02T03:07:40.267Z,22.19
2017-09-02T03:08:11.844Z,22.19
2017-09-02T03:08:43.409Z,22.18
2017-09-02T03:09:15.022Z,22.18
2017-09-02T03:09:46.725Z,22.20
2017-09-02T03:10:18.316Z,22.20
2017-09-02T03:10:49.904Z,22.21
2017-09-02T03:11:21.500Z,22.22
2017-09-02T03:11:53.068Z,22.20
2017-09-02T03:12:24.679Z,22.20
2017-09-02T03:12:56.274Z,22.19
2017-09-02T03:13:27.869Z,22.19
2017-09-02T03:13:59.450Z,22.20
2017-09-02T03:14:31.195Z,22.21
2017-09-02T03:15:02.774Z,22.22
2017-09-02T03:15:34.480Z,22.23
2017-09-02T03:16:06.052Z,22.23
2017-09-02T03:16:37.763Z,22.23
2017-09-02T03:17:09.342Z,22.22
2017-09-02T03:17:41.048Z,22.23
2017-09-02T03:18:12.603Z,22.23
2017-09-02T03:18:44.172Z,22.22
2017-09-02T03:19:15.730Z,22.22
2017-09-02T03:19:47.524Z,22.22
2017-09-02T03:20:19.097Z,22.21
2017-09-02T03:20:50.860Z,22.22
2017-09-02T03:21:22.445Z,22.21
2017-09-02T03:21:54.035Z,22.21
2017-09-02T03:22:25.831Z,22.20
2017-09-02T03:22:57.637Z,22.21
2017-09-02T03:23:29.404Z,22.21
2017-09-02T03:24:00.993Z,22.20
2017-09-02T03:24:32.697Z,22.19
2017-09-02T03:25:04.305Z,22.19
2017-09-02T03:25:35.982Z,22.19
2017-09-02T03:26:07.555Z,22.19
2017-09-02T03:26:39.267Z,22.19
2017-09-02T03:27:10.857Z,22.19
2017-09-02T03:27:42.559Z,22.18
2017-09-02T03:28:14.145Z,22.18
2017-09-02T03:28:45.833Z,22.19
2017-09-02T03:29:17.432Z,22.18
2017-09-02T03:29:49.035Z,22.18
2017-09-02T03:30:20.687Z,22.18
2017-09-02T03:30:52.271Z,22.17
2017-09-02T03:31:23.872Z,22.17
2017-09-02T03:31:55.448Z,22.17
2017-09-02T03:32:27.017Z,22.17
2017-09-02T03:32:58.616Z,22.18
2017-09-02T03:33:30.201Z,22.18
2017-09-02T03:34:01.780Z,22.19
2017-09-02T03:34:33.342Z,22.18
2017-09-02T03:35:04.941Z,22.17
2017-09-02T03:35:36.773Z,22.17
2017-09-02T03:36:08.349Z,22.17
2017-09-02T03:36:40.174Z,22.17
2017-09-02T03:37:11.737Z,22.17
2017-09-02T03:37:43.301Z,22.16
2017-09-02T03:38:14.886Z,22.16
2017-09-02T03:38:46.466Z,22.16
2017-09-02T03:39:18.060Z,22.16
2017-09-02T03:39:49.622Z,22.15
2017-09-02T03:40:21.341Z,22.16
2017-09-02T03:40:53.185Z,22.16
2017-09-02T03:41:24.773Z,22.16
2017-09-02T03:41:56.575Z,22.15
2017-09-02T03:42:28.180Z,22.15
2017-09-02T03:43:00.750Z,22.16
2017-09-02T03:43:32.320Z,22.16
2017-09-02T03:44:03.913Z,22.16
2017-09-02T03:44:35.704Z,22.16
2017-09-02T03:45:07.285Z,22.16
2017-09-02T03:45:38.846Z,22.16
2017-09-02T03:46:10.453Z,22.15
2017-09-02T03:46:42.036Z,22.16
2017-09-02T03:47:13.614Z,22.15
2017-09-02T03:47:45.197Z,22.16
2017-09-02T03:48:16.896Z,22.15
2017-09-02T03:48:48.470Z,22.15
2017-09-02T03:49:20.035Z,22.14
2017-09-02T03:49:51.614Z,22.14
2017-09-02T03:50:23.178Z,22.13
2017-09-02T03:50:54.742Z,22.13
2017-09-02T03:51:26.351Z,22.13
2017-09-02T03:51:57.912Z,22.13
2017-09-02T03:52:29.480Z,22.14
2017-09-02T03:53:01.050Z,22.16
2017-09-02T03:53:33.622Z,22.13
2017-09-02T03:54:05.194Z,22.16
2017-09-02T03:54:36.755Z,22.17
2017-09-02T03:55:08.699Z,22.17
2017-09-02T03:55:40.409Z,22.18
2017-09-02T03:56:11.977Z,22.18
2017-09-02T03:56:43.575Z,22.19
2017-09-02T03:57:15.174Z,22.18
2017-09-02T03:57:46.770Z,22.18
2017-09-02T03:58:18.334Z,22.17
2017-09-02T03:58:49.896Z,22.16
2017-09-02T03:59:22.135Z,22.15
2017-09-02T03:59:53.733Z,22.15
2017-09-02T04:00:25.345Z,22.14
2017-09-02T04:00:56.958Z,22.14
2017-09-02T04:01:28.750Z,22.14
2017-09-02T04:02:00.359Z,22.14
2017-09-02T04:02:32.149Z,22.13
2017-09-02T04:03:03.726Z,22.13
2017-09-02T04:03:35.310Z,22.13
2017-09-02T04:04:06.882Z,22.13
2017-09-02T04:04:38.584Z,22.13
2017-09-02T04:05:10.160Z,22.13
2017-09-02T04:05:41.986Z,22.13
2017-09-02T04:06:13.559Z,22.13
2017-09-02T04:06:45.282Z,22.14
2017-09-02T04:07:16.922Z,22.14
2017-09-02T04:07:48.501Z,22.13
2017-09-02T04:08:20.052Z,22.13
2017-09-02T04:08:51.848Z,22.13
2017-09-02T04:09:23.447Z,22.13
2017-09-02T04:09:55.032Z,22.12
2017-09-02T04:10:26.606Z,22.13
2017-09-02T04:10:58.174Z,22.13
2017-09-02T04:11:29.756Z,22.12
2017-09-02T04:12:01.331Z,22.12
2017-09-02T04:12:32.940Z,22.12
2017-09-02T04:13:04.528Z,22.12
2017-09-02T04:13:36.118Z,22.12
2017-09-02T04:14:07.692Z,22.12
2017-09-02T04:14:39.295Z,22.11
2017-09-02T04:15:10.878Z,22.11
2017-09-02T04:15:42.583Z,22.11
2017-09-02T04:16:14.217Z,22.11
2017-09-02T04:16:45.803Z,22.11
2017-09-02T04:17:17.413Z,22.12
2017-09-02T04:17:49.143Z,22.12
2017-09-02T04:18:20.742Z,22.12
2017-09-02T04:18:52.327Z,22.12
2017-09-02T04:19:23.907Z,22.11
2017-09-02T04:19:55.481Z,22.13
2017-09-02T04:20:27.058Z,22.12
2017-09-02T04:20:58.627Z,22.12
2017-09-02T04:21:30.332Z,22.11
2017-09-02T04:22:01.903Z,22.12
2017-09-02T04:22:33.478Z,22.12
2017-09-02T04:23:05.111Z,22.12
2017-09-02T04:23:36.688Z,22.11
2017-09-02T04:24:08.257Z,22.11
2017-09-02T04:24:39.843Z,22.11
2017-09-02T04:25:11.521Z,22.12
2017-09-02T04:25:43.126Z,22.12
2017-09-02T04:26:14.695Z,22.11
2017-09-02T04:26:46.260Z,22.12
2017-09-02T04:27:17.831Z,22.12
2017-09-02T04:27:49.417Z,22.11
2017-09-02T04:28:21.062Z,22.11
2017-09-02T04:28:52.646Z,22.11
2017-09-02T04:29:24.345Z,22.11
2017-09-02T04:29:55.943Z,22.10
2017-09-02T04:30:27.528Z,22.10
2017-09-02T04:30:59.129Z,22.10
2017-09-02T04:31:30.704Z,22.11
2017-09-02T04:32:02.283Z,22.11
2017-09-02T04:32:33.882Z,22.10
2017-09-02T04:33:05.453Z,22.10
2017-09-02T04:33:37.088Z,22.10
2017-09-02T04:34:08.670Z,22.09
2017-09-02T04:34:40.447Z,22.09
2017-09-02T04:35:12.069Z,22.08
2017-09-02T04:35:43.914Z,22.09
2017-09-02T04:36:15.504Z,22.09
2017-09-02T04:36:47.340Z,22.09
2017-09-02T04:37:18.929Z,22.09
2017-09-02T04:37:50.613Z,22.09
2017-09-02T04:38:22.205Z,22.08
2017-09-02T04:38:54.106Z,22.08
2017-09-02T04:39:26.677Z,22.08
2017-09-02T04:39:58.259Z,22.08
2017-09-02T04:40:29.847Z,22.07
2017-09-02T04:41:01.428Z,22.07
2017-09-02T04:41:33.030Z,22.08
2017-09-02T04:42:04.606Z,22.08
2017-09-02T04:42:36.315Z,22.08
2017-09-02T04:43:07.905Z,22.08
2017-09-02T04:43:39.496Z,22.08
2017-09-02T04:44:11.124Z,22.08
2017-09-02T04:44:42.701Z,22.08
2017-09-02T04:45:14.528Z,22.08
2017-09-02T04:45:46.085Z,22.07
2017-09-02T04:46:17.700Z,22.06
2017-09-02T04:46:49.286Z,22.06
2017-09-02T04:47:20.860Z,22.06
2017-09-02T04:47:52.455Z,22.06
2017-09-02T04:48:24.067Z,22.06
2017-09-02T04:48:55.658Z,22.06
2017-09-02T04:49:27.282Z,22.07
2017-09-02T04:49:58.865Z,22.06
2017-09-02T04:50:30.452Z,22.06
2017-09-02T04:51:02.024Z,22.06
2017-09-02T04:51:33.618Z,22.05
2017-09-02T04:52:05.227Z,22.05
2017-09-02T04:52:36.794Z,22.06
2017-09-02T04:53:08.587Z,22.05
2017-09-02T04:53:40.192Z,22.05
2017-09-02T04:54:11.760Z,22.05
2017-09-02T04:54:43.412Z,22.05
2017-09-02T04:55:15.019Z,22.06
2017-09-02T04:55:46.624Z,22.06
2017-09-02T04:56:18.221Z,22.07
2017-09-02T04:56:49.784Z,22.07
2017-09-02T04:57:21.369Z,22.07
2017-09-02T04:57:52.949Z,22.07
2017-09-02T04:58:24.567Z,22.07
2017-09-02T04:58:56.256Z,22.07
2017-09-02T04:59:27.842Z,22.06
2017-09-02T04:59:59.588Z,22.07
2017-09-02T05:00:31.180Z,22.08
2017-09-02T05:01:02.747Z,22.07
2017-09-02T05:01:34.319Z,22.08
2017-09-02T05:02:05.897Z,22.07
2017-09-02T05:02:37.489Z,22.07
2017-09-02T05:03:09.098Z,22.06
2017-09-02T05:03:40.676Z,22.05
2017-09-02T05:04:12.254Z,22.05
2017-09-02T05:04:44.952Z,22.03
2017-09-02T05:05:17.723Z,22.03
2017-09-02T05:05:49.311Z,22.02
2017-09-02T05:06:21.128Z,22.02
2017-09-02T05:06:52.730Z,22.01
2017-09-02T05:07:24.334Z,22.00
2017-09-02T05:07:56.048Z,22.00
2017-09-02T05:08:27.650Z,21.99
2017-09-02T05:08:59.260Z,21.98
2017-09-02T05:09:30.829Z,21.97
2017-09-02T05:10:02.617Z,21.98
2017-09-02T05:10:34.195Z,21.96
2017-09-02T05:11:05.901Z,21.97
2017-09-02T05:11:37.477Z,21.96
2017-09-02T05:12:09.043Z,21.95
2017-09-02T05:12:40.810Z,21.96
2017-09-02T05:13:12.395Z,21.95
2017-09-02T05:13:43.953Z,21.95
2017-09-02T05:14:15.555Z,21.95
2017-09-02T05:14:47.126Z,21.95
2017-09-02T05:15:18.727Z,21.94
2017-09-02T05:15:50.367Z,21.94
2017-09-02T05:16:21.951Z,21.93
2017-09-02T05:16:53.552Z,21.94
2017-09-02T05:17:25.136Z,21.95
2017-09-02T05:17:56.751Z,21.95
2017-09-02T05:18:28.336Z,21.95
2017-09-02T05:18:59.916Z,21.95
2017-09-02T05:19:31.485Z,21.95
2017-09-02T05:20:03.197Z,21.95
2017-09-02T05:20:34.766Z,21.95
2017-09-02T05:21:06.687Z,21.96
2017-09-02T05:21:38.275Z,21.96
2017-09-02T05:22:10.074Z,21.96
2017-09-02T05:22:41.645Z,21.95
2017-09-02T05:23:13.212Z,21.95
2017-09-02T05:23:44.999Z,21.96
2017-09-02T05:24:16.581Z,21.96
2017-09-02T05:24:48.281Z,21.96
2017-09-02T05:25:19.881Z,21.97
2017-09-02T05:25:51.493Z,21.96
2017-09-02T05:26:23.449Z,21.96
2017-09-02T05:26:55.054Z,21.96
2017-09-02T05:27:26.634Z,21.96
2017-09-02T05:27:58.240Z,21.96
2017-09-02T05:28:29.828Z,21.95
2017-09-02T05:29:01.424Z,21.96
2017-09-02T05:29:33.013Z,21.96
2017-09-02T05:30:04.700Z,21.96
2017-09-02T05:30:36.342Z,21.96
2017-09-02T05:31:07.990Z,21.95
2017-09-02T05:31:39.630Z,21.95
2017-09-02T05:32:11.195Z,21.95
2017-09-02T05:32:42.768Z,21.94
2017-09-02T05:33:14.366Z,21.95
2017-09-02T05:33:45.960Z,21.94
2017-09-02T05:34:17.573Z,21.95
2017-09-02T05:34:49.173Z,21.96
2017-09-02T05:35:20.744Z,21.97
2017-09-02T05:35:52.357Z,21.98
2017-09-02T05:36:23.948Z,22.00
2017-09-02T05:36:55.978Z,22.00
2017-09-02T05:37:27.568Z,22.00
2017-09-02T05:37:59.146Z,22.00
2017-09-02T05:38:30.723Z,22.00
2017-09-02T05:39:02.310Z,22.00
2017-09-02T05:39:33.892Z,22.00
2017-09-02T05:40:05.488Z,22.00
2017-09-02T05:40:37.096Z,21.99
2017-09-02T05:41:08.676Z,21.99
2017-09-02T05:41:40.251Z,21.98
2017-09-02T05:42:11.901Z,21.98
2017-09-02T05:42:43.503Z,21.96
2017-09-02T05:43:15.086Z,21.96
2017-09-02T05:43:46.682Z,21.96
2017-09-02T05:44:18.288Z,21.96
2017-09-02T05:44:49.863Z,21.95
2017-09-02T05:45:21.431Z,21.94
2017-09-02T05:45:53.039Z,21.94
2017-09-02T05:46:24.611Z,21.94
2017-09-02T05:46:56.206Z,21.94
2017-09-02T05:47:27.802Z,21.94
2017-09-02T05:47:59.417Z,21.93
2017-09-02T05:48:31.043Z,21.93
2017-09-02T05:49:02.779Z,21.93
2017-09-02T05:49:34.383Z,21.93
2017-09-02T05:50:05.984Z,21.92
2017-09-02T05:50:37.566Z,21.92
2017-09-02T05:51:09.457Z,21.93
2017-09-02T05:51:41.028Z,21.92
2017-09-02T05:52:12.950Z,21.92
2017-09-02T05:52:52.022Z,21.92
2017-09-02T05:53:23.644Z,21.92
2017-09-02T05:53:55.230Z,21.92
2017-09-02T05:54:26.852Z,21.91
2017-09-02T05:54:58.460Z,21.91
2017-09-02T05:55:30.245Z,21.91
2017-09-02T05:56:01.846Z,21.92
2017-09-02T05:56:33.419Z,21.91
2017-09-02T05:57:05.029Z,21.92
2017-09-02T05:57:36.642Z,21.92
2017-09-02T05:58:08.286Z,21.91
2017-09-02T05:58:39.885Z,21.92
2017-09-02T05:59:11.495Z,21.93
2017-09-02T05:59:43.065Z,21.92
2017-09-02T06:00:14.647Z,21.93
2017-09-02T06:00:46.245Z,21.92
2017-09-02T06:01:17.835Z,21.92
2017-09-02T06:01:49.439Z,21.92
2017-09-02T06:02:21.013Z,21.92
2017-09-02T06:02:52.611Z,21.91
2017-09-02T06:03:24.226Z,21.91
2017-09-02T06:03:55.806Z,21.91
2017-09-02T06:04:27.399Z,21.92
2017-09-02T06:04:58.981Z,21.91
2017-09-02T06:05:30.578Z,21.91
2017-09-02T06:06:02.151Z,21.91
2017-09-02T06:06:33.771Z,21.92
2017-09-02T06:07:05.370Z,21.93
2017-09-02T06:07:36.972Z,21.93
2017-09-02T06:08:08.551Z,21.93
2017-09-02T06:08:40.193Z,21.93
2017-09-02T06:09:11.778Z,21.91
2017-09-02T06:09:43.355Z,21.91
2017-09-02T06:10:14.921Z,21.91
2017-09-02T06:10:46.497Z,21.91
2017-09-02T06:43:42.585Z,22.14
2017-09-02T06:44:58.515Z,22.19
2017-09-02T06:45:30.111Z,22.18
2017-09-02T06:46:01.743Z,22.17
2017-09-02T06:46:33.388Z,22.15
2017-09-02T06:47:05.039Z,22.13
2017-09-02T06:47:36.677Z,22.12
2017-09-02T06:48:08.276Z,22.09
2017-09-02T06:48:39.872Z,22.07
2017-09-02T06:49:11.606Z,22.06
2017-09-02T06:49:43.454Z,22.06
2017-09-02T06:50:15.057Z,22.05
2017-09-02T06:50:46.661Z,22.06
2017-09-02T06:51:18.373Z,22.06
2017-09-02T06:51:49.976Z,22.05
2017-09-02T06:52:21.579Z,22.06
2017-09-02T06:52:53.204Z,22.05
2017-09-02T06:53:24.804Z,22.06
2017-09-02T06:53:56.375Z,22.06
2017-09-02T06:54:28.002Z,22.05
2017-09-02T06:54:59.655Z,22.05
2017-09-02T06:55:31.240Z,22.05
2017-09-02T06:56:02.840Z,22.04
2017-09-02T06:56:34.427Z,22.04
2017-09-02T06:57:06.048Z,22.04
2017-09-02T06:57:37.644Z,22.05
2017-09-02T06:58:09.218Z,22.04
2017-09-02T06:58:40.798Z,22.05
2017-09-02T06:59:12.686Z,22.05
2017-09-02T06:59:44.441Z,22.05
2017-09-02T07:00:16.400Z,22.05
2017-09-02T07:00:48.029Z,22.05
2017-09-02T07:01:19.598Z,22.06
2017-09-02T07:01:51.312Z,22.06
2017-09-02T07:02:22.880Z,22.07
2017-09-02T07:02:54.440Z,22.10
2017-09-02T07:03:26.031Z,22.15
2017-09-02T07:03:57.647Z,22.16
2017-09-02T07:04:29.212Z,22.17
2017-09-02T07:05:01.486Z,22.15
2017-09-02T07:05:33.274Z,22.12
2017-09-02T07:06:04.875Z,22.10
2017-09-02T07:06:36.439Z,22.08
2017-09-02T07:07:08.038Z,22.08
2017-09-02T07:07:39.616Z,22.07
2017-09-02T07:08:11.322Z,22.05
2017-09-02T07:08:42.900Z,22.04
2017-09-02T07:09:14.483Z,22.02
2017-09-02T07:09:46.085Z,22.01
2017-09-02T07:10:17.657Z,21.98
2017-09-02T07:10:49.294Z,21.97
2017-09-02T07:11:20.881Z,21.95
2017-09-02T07:11:52.518Z,21.94
2017-09-02T07:12:24.103Z,21.92
2017-09-02T07:12:55.695Z,21.91
2017-09-02T07:13:27.275Z,21.89
2017-09-02T07:13:58.943Z,21.87
2017-09-02T07:14:30.570Z,21.85
2017-09-02T07:15:02.161Z,21.83
2017-09-02T07:15:33.726Z,21.83
2017-09-02T07:16:05.360Z,21.80
2017-09-02T07:16:36.982Z,21.80
2017-09-02T07:17:08.585Z,21.79
2017-09-02T07:17:40.179Z,21.78
2017-09-02T07:18:11.766Z,21.77
2017-09-02T07:18:43.459Z,21.76
2017-09-02T07:19:15.034Z,21.76
2017-09-02T07:19:46.741Z,21.75
2017-09-02T07:20:18.395Z,21.75
2017-09-02T07:20:50.124Z,21.74